createdAt,value
2019-02-09T00:01:20.672Z,99.90
2019-02-09T00:03:48.590Z,99.90
2019-02-09T00:06:16.473Z,99.90
2019-02-09T00:08:44.385Z,99.90
2019-02-09T00:11:12.249Z,99.90
2019-02-09T00:13:40.165Z,99.90
2019-02-09T00:16:08.128Z,99.90
2019-02-09T00:18:36.131Z,99.90
2019-02-09T00:21:04.324Z,99.90
2019-02-09T00:23:32.472Z,99.90
2019-02-09T00:26:00.366Z,99.90
2019-02-09T00:28:28.321Z,99.90
2019-02-09T00:30:56.322Z,99.90
2019-02-09T00:33:24.218Z,99.90
2019-02-09T00:35:52.189Z,99.90
2019-02-09T00:38:20.084Z,99.90
2019-02-09T00:40:47.989Z,99.90
2019-02-09T00:43:15.948Z,99.90
2019-02-09T00:45:43.913Z,99.90
2019-02-09T00:48:12.112Z,99.90
2019-02-09T00:50:40.023Z,99.90
2019-02-09T00:53:07.892Z,99.90
2019-02-09T00:55:36.123Z,99.90
2019-02-09T00:58:04.775Z,99.90
2019-02-09T01:00:32.774Z,99.90
2019-02-09T01:03:00.935Z,99.90
2019-02-09T01:05:30.732Z,99.90
2019-02-09T01:07:58.942Z,99.90
2019-02-09T01:10:28.985Z,99.90
2019-02-09T01:12:57.166Z,99.90
2019-02-09T01:15:25.084Z,99.90
2019-02-09T01:17:52.961Z,99.90
2019-02-09T01:20:21.713Z,99.90
2019-02-09T01:22:49.678Z,99.90
2019-02-09T01:25:17.652Z,99.90
2019-02-09T01:27:45.525Z,99.90
2019-02-09T01:30:15.028Z,99.90
2019-02-09T01:32:42.997Z,99.90
2019-02-09T01:35:11.520Z,99.90
2019-02-09T01:37:39.473Z,99.90
2019-02-09T01:40:08.445Z,99.90
2019-02-09T01:42:36.642Z,99.90
2019-02-09T01:45:05.240Z,99.90
2019-02-09T01:47:33.138Z,99.90
2019-02-09T01:50:01.288Z,99.90
2019-02-09T01:52:29.168Z,99.90
2019-02-09T01:54:57.052Z,99.90
2019-02-09T01:57:25.020Z,99.90
2019-02-09T01:59:52.922Z,99.90
2019-02-09T02:02:20.815Z,99.90
2019-02-09T02:07:58.477Z,99.90
2019-02-09T02:10:30.362Z,99.90
2019-02-09T02:12:58.670Z,99.90
2019-02-09T02:15:27.011Z,99.90
2019-02-09T02:17:54.974Z,99.90
2019-02-09T02:20:23.492Z,99.90
2019-02-09T02:22:51.860Z,99.90
2019-02-09T02:25:19.820Z,99.90
2019-02-09T02:27:48.268Z,99.90
2019-02-09T02:30:22.675Z,99.90
2019-02-09T02:32:47.934Z,99.90
2019-02-09T02:35:15.960Z,99.90
2019-02-09T02:37:43.913Z,99.90
2019-02-09T02:40:11.871Z,99.90
2019-02-09T02:42:39.829Z,99.90
2019-02-09T02:45:09.042Z,99.90
2019-02-09T02:47:37.569Z,99.90
2019-02-09T02:50:05.953Z,99.90
2019-02-09T02:52:33.809Z,99.90
2019-02-09T02:55:01.938Z,99.90
2019-02-09T02:57:29.876Z,99.90
2019-02-09T02:59:57.774Z,99.90
2019-02-09T03:02:25.648Z,99.90
2019-02-09T03:04:53.569Z,99.90
2019-02-09T03:07:21.424Z,99.90
2019-02-09T03:09:49.558Z,99.90
2019-02-09T03:12:17.433Z,99.90
2019-02-09T03:14:45.283Z,99.90
2019-02-09T03:17:13.144Z,99.90
2019-02-09T03:19:41.020Z,99.90
2019-02-09T03:22:09.045Z,99.90
2019-02-09T03:24:37.157Z,99.90
2019-02-09T03:27:05.108Z,99.90
2019-02-09T03:29:32.971Z,99.90
2019-02-09T03:32:00.839Z,99.90
2019-02-09T03:34:28.977Z,99.90
2019-02-09T03:36:56.832Z,99.90
2019-02-09T03:39:24.713Z,99.90
2019-02-09T03:41:52.692Z,99.90
2019-02-09T03:44:20.619Z,99.90
2019-02-09T03:46:48.790Z,99.90
2019-02-09T03:49:16.670Z,99.90
2019-02-09T03:51:44.530Z,99.90
2019-02-09T03:54:12.485Z,99.90
2019-02-09T03:56:40.887Z,99.90
2019-02-09T03:59:08.767Z,99.90
2019-02-09T04:01:36.751Z,99.90
2019-02-09T04:04:04.703Z,99.90
2019-02-09T04:06:32.886Z,99.90
2019-02-09T04:09:00.755Z,99.90
2019-02-09T04:11:28.665Z,99.90
2019-02-09T04:13:57.020Z,99.90
2019-02-09T04:16:24.908Z,99.90
2019-02-09T04:18:53.089Z,99.90
2019-02-09T04:21:21.043Z,99.90
2019-02-09T04:23:48.933Z,99.90
2019-02-09T04:26:16.853Z,99.90
2019-02-09T04:28:44.716Z,99.90
2019-02-09T04:31:12.593Z,99.90
2019-02-09T04:33:40.472Z,99.90
2019-02-09T04:36:08.462Z,99.90
2019-02-09T04:38:36.319Z,99.90
2019-02-09T04:41:04.281Z,99.90
2019-02-09T04:43:37.974Z,99.90
2019-02-09T04:46:05.848Z,99.90
2019-02-09T04:48:33.720Z,99.90
2019-02-09T04:51:05.554Z,99.90
2019-02-09T04:53:33.518Z,99.90
2019-02-09T04:56:06.089Z,99.90
2019-02-09T04:58:33.977Z,99.90
2019-02-09T05:01:01.846Z,99.90
2019-02-09T05:03:30.239Z,99.90
2019-02-09T05:05:58.145Z,99.90
2019-02-09T05:08:26.035Z,99.90
2019-02-09T05:10:53.896Z,99.90
2019-02-09T05:13:21.776Z,99.90
2019-02-09T05:15:49.658Z,99.90
2019-02-09T05:18:17.541Z,99.90
2019-02-09T05:20:45.732Z,99.90
2019-02-09T05:23:13.612Z,99.90
2019-02-09T05:25:41.497Z,99.90
2019-02-09T05:28:09.645Z,99.90
2019-02-09T05:30:37.500Z,99.90
2019-02-09T05:33:05.692Z,99.90
2019-02-09T05:35:34.404Z,99.90
2019-02-09T05:38:02.321Z,99.90
2019-02-09T05:40:30.167Z,99.90
2019-02-09T05:42:58.049Z,99.90
2019-02-09T05:45:26.439Z,99.90
2019-02-09T05:47:54.603Z,99.90
2019-02-09T05:50:22.684Z,99.60
2019-02-09T05:52:50.537Z,99.50
2019-02-09T05:55:24.861Z,99.70
2019-02-09T05:57:53.751Z,99.20
2019-02-09T06:00:27.593Z,98.60
2019-02-09T06:02:55.613Z,98.20
2019-02-09T06:05:28.133Z,98.30
2019-02-09T06:07:56.184Z,98.10
2019-02-09T06:10:24.047Z,98.30
2019-02-09T06:12:52.277Z,98.30
2019-02-09T06:15:20.229Z,98.10
2019-02-09T06:17:48.090Z,97.80
2019-02-09T06:20:17.608Z,97.50
2019-02-09T06:22:45.478Z,97.50
2019-02-09T06:25:15.416Z,97.60
2019-02-09T06:27:43.688Z,97.80
2019-02-09T06:30:13.984Z,97.20
2019-02-09T06:32:41.832Z,96.80
2019-02-09T06:35:09.802Z,96.80
2019-02-09T06:37:38.981Z,97.10
2019-02-09T06:40:07.759Z,97.40
2019-02-09T06:42:35.709Z,96.80
2019-02-09T06:45:05.695Z,96.30
2019-02-09T06:47:33.536Z,96.30
2019-02-09T06:50:01.782Z,96.10
2019-02-09T06:52:29.641Z,96.10
2019-02-09T06:54:57.604Z,95.50
2019-02-09T06:57:25.464Z,95.50
2019-02-09T06:59:53.838Z,94.80
2019-02-09T07:02:36.253Z,94.40
2019-02-09T07:05:05.322Z,93.90
2019-02-09T07:07:33.184Z,93.80
2019-02-09T07:10:01.081Z,93.10
2019-02-09T07:12:29.017Z,92.90
2019-02-09T07:14:56.900Z,92.60
2019-02-09T07:17:24.769Z,92.30
2019-02-09T07:19:52.877Z,92.20
2019-02-09T07:22:22.074Z,91.90
2019-02-09T07:24:50.210Z,92.30
2019-02-09T07:27:18.137Z,92.30
2019-02-09T07:29:46.296Z,92.40
2019-02-09T07:32:14.989Z,92.80
2019-02-09T07:34:43.098Z,92.90
2019-02-09T07:37:11.009Z,93.30
2019-02-09T07:39:39.237Z,93.30
2019-02-09T07:42:07.480Z,93.10
2019-02-09T07:44:35.462Z,93.00
2019-02-09T07:47:03.429Z,92.80
2019-02-09T07:49:31.566Z,92.60
2019-02-09T07:52:03.023Z,92.30
2019-02-09T07:54:31.319Z,92.40
2019-02-09T07:56:59.320Z,92.40
2019-02-09T07:59:27.429Z,92.40
2019-02-09T08:01:55.323Z,92.70
2019-02-09T08:04:23.265Z,92.70
2019-02-09T08:06:51.276Z,92.90
2019-02-09T08:09:19.167Z,93.10
2019-02-09T08:11:47.392Z,93.60
2019-02-09T08:14:15.548Z,93.60
2019-02-09T08:16:43.500Z,93.50
2019-02-09T08:19:11.750Z,93.90
2019-02-09T08:21:39.902Z,93.90
2019-02-09T08:24:07.771Z,94.00
2019-02-09T08:26:35.946Z,92.80
2019-02-09T08:29:04.043Z,91.60
2019-02-09T08:31:32.195Z,90.70
2019-02-09T08:34:00.561Z,88.40
2019-02-09T08:36:28.688Z,86.10
2019-02-09T08:38:56.638Z,84.20
2019-02-09T08:41:24.888Z,82.50
2019-02-09T08:43:53.210Z,81.40
2019-02-09T08:46:21.429Z,79.80
2019-02-09T08:48:49.481Z,78.90
2019-02-09T08:51:17.453Z,77.20
2019-02-09T08:53:47.049Z,74.40
2019-02-09T08:56:31.565Z,74.00
2019-02-09T08:58:59.483Z,75.50
2019-02-09T09:01:27.458Z,77.10
2019-02-09T09:03:55.702Z,78.70
2019-02-09T09:06:23.781Z,80.30
2019-02-09T09:08:51.678Z,81.30
2019-02-09T09:11:19.709Z,81.10
2019-02-09T09:13:47.567Z,79.40
2019-02-09T09:16:15.684Z,77.20
2019-02-09T09:18:43.573Z,75.00
2019-02-09T09:21:11.762Z,74.00
2019-02-09T09:23:39.732Z,73.20
2019-02-09T09:26:07.924Z,73.30
2019-02-09T09:28:35.868Z,73.20
2019-02-09T09:31:04.029Z,72.90
2019-02-09T09:33:32.015Z,71.90
2019-02-09T09:36:11.273Z,69.60
2019-02-09T09:38:40.617Z,69.30
2019-02-09T09:41:08.644Z,68.20
2019-02-09T09:43:36.990Z,69.30
2019-02-09T09:46:05.057Z,69.40
2019-02-09T09:48:33.360Z,70.30
2019-02-09T09:51:01.549Z,70.70
2019-02-09T09:53:29.853Z,70.20
2019-02-09T09:55:58.002Z,70.10
2019-02-09T09:58:26.041Z,69.30
2019-02-09T10:00:54.053Z,67.90
2019-02-09T10:03:22.118Z,68.00
2019-02-09T10:05:50.041Z,68.60
2019-02-09T10:08:18.071Z,69.80
2019-02-09T10:10:46.066Z,71.90
2019-02-09T10:13:14.442Z,73.10
2019-02-09T10:15:42.566Z,74.00
2019-02-09T10:18:10.652Z,76.10
2019-02-09T10:20:38.800Z,74.70
2019-02-09T10:23:06.797Z,70.60
2019-02-09T10:25:34.803Z,66.50
2019-02-09T10:28:02.951Z,65.00
2019-02-09T10:30:31.363Z,64.60
2019-02-09T10:32:59.566Z,61.20
2019-02-09T10:35:27.574Z,59.20
2019-02-09T10:37:55.703Z,56.50
2019-02-09T10:40:27.162Z,57.40
2019-02-09T10:42:55.168Z,58.00
2019-02-09T10:45:25.679Z,58.90
2019-02-09T10:47:54.160Z,59.30
2019-02-09T10:50:23.625Z,59.90
2019-02-09T10:52:51.570Z,61.30
2019-02-09T10:55:19.804Z,62.30
2019-02-09T10:57:48.027Z,63.70
2019-02-09T11:00:17.731Z,64.70
2019-02-09T11:02:52.089Z,63.70
2019-02-09T11:05:17.176Z,63.90
2019-02-09T11:07:45.556Z,62.90
2019-02-09T11:10:14.230Z,60.40
2019-02-09T11:12:42.196Z,60.00
2019-02-09T11:15:10.971Z,59.30
2019-02-09T11:17:38.846Z,58.10
2019-02-09T11:20:07.587Z,57.40
2019-02-09T11:22:35.632Z,57.60
2019-02-09T11:25:03.860Z,56.40
2019-02-09T11:27:31.980Z,56.70
2019-02-09T11:29:59.876Z,57.70
2019-02-09T11:32:27.792Z,58.20
2019-02-09T11:35:18.901Z,58.00
2019-02-09T11:37:47.124Z,57.90
2019-02-09T11:40:16.093Z,58.30
2019-02-09T11:42:44.063Z,58.50
2019-02-09T11:45:14.235Z,59.40
2019-02-09T11:47:42.173Z,60.80
2019-02-09T11:50:10.492Z,61.80
2019-02-09T11:52:40.570Z,66.20
2019-02-09T11:55:10.938Z,70.10
2019-02-09T11:57:39.216Z,70.50
2019-02-09T12:00:13.169Z,72.10
2019-02-09T12:02:41.335Z,71.90
2019-02-09T12:05:09.308Z,70.80
2019-02-09T12:07:37.302Z,70.00
2019-02-09T12:10:06.033Z,70.80
2019-02-09T12:12:35.910Z,70.10
2019-02-09T12:15:05.292Z,69.00
2019-02-09T12:18:04.750Z,68.50
2019-02-09T12:20:32.727Z,66.50
2019-02-09T12:23:11.219Z,66.50
2019-02-09T12:25:39.342Z,66.70
2019-02-09T12:28:07.922Z,66.30
2019-02-09T12:30:42.214Z,65.70
2019-02-09T12:33:46.453Z,66.10
2019-02-09T12:36:14.692Z,65.40
2019-02-09T12:38:42.641Z,64.70
2019-02-09T12:41:10.568Z,64.10
2019-02-09T12:43:38.636Z,64.50
2019-02-09T12:46:06.841Z,65.50
2019-02-09T12:48:34.925Z,66.00
2019-02-09T12:51:02.892Z,65.60
2019-02-09T12:53:30.834Z,65.70
2019-02-09T12:55:59.006Z,64.80
2019-02-09T12:58:26.988Z,63.30
2019-02-09T13:00:55.137Z,61.50
2019-02-09T13:03:30.948Z,60.70
2019-02-09T13:05:53.822Z,60.00
2019-02-09T13:08:21.881Z,59.00
2019-02-09T13:10:49.977Z,59.70
2019-02-09T13:13:18.218Z,58.90
2019-02-09T13:15:46.489Z,59.30
2019-02-09T13:18:14.528Z,59.80
2019-02-09T13:20:42.798Z,59.90
2019-02-09T13:23:10.918Z,60.00
2019-02-09T13:25:38.833Z,61.90
2019-02-09T13:28:09.747Z,64.50
2019-02-09T13:30:37.751Z,69.80
2019-02-09T13:33:05.824Z,74.50
2019-02-09T13:39:21.626Z,81.40
2019-02-09T13:41:49.629Z,84.10
2019-02-09T13:44:17.778Z,85.30
2019-02-09T13:46:45.974Z,84.70
2019-02-09T13:49:13.905Z,85.80
2019-02-09T13:51:41.839Z,87.00
2019-02-09T13:54:14.418Z,87.40
2019-02-09T13:56:42.345Z,89.10
2019-02-09T13:59:10.614Z,90.20
2019-02-09T14:01:38.582Z,91.10
2019-02-09T14:04:06.549Z,91.30
2019-02-09T14:06:34.684Z,91.80
2019-02-09T14:09:02.986Z,91.40
2019-02-09T14:11:30.889Z,91.50
2019-02-09T14:13:58.752Z,91.00
2019-02-09T14:16:26.648Z,90.70
2019-02-09T14:18:54.506Z,91.10
2019-02-09T14:21:22.471Z,91.20
2019-02-09T14:23:50.432Z,91.20
2019-02-09T14:26:18.299Z,91.00
2019-02-09T14:28:46.294Z,91.10
2019-02-09T14:31:14.605Z,91.00
2019-02-09T14:33:42.504Z,90.60
2019-02-09T14:36:10.453Z,90.50
2019-02-09T14:38:38.358Z,90.20
2019-02-09T14:41:06.340Z,90.20
2019-02-09T14:43:34.212Z,90.20
2019-02-09T14:46:02.100Z,90.00
2019-02-09T14:48:29.961Z,90.30
2019-02-09T14:50:57.824Z,90.40
2019-02-09T14:53:25.981Z,90.50
2019-02-09T14:55:53.899Z,90.30
2019-02-09T14:58:21.843Z,89.80
2019-02-09T15:00:50.577Z,90.00
2019-02-09T15:03:26.129Z,89.70
2019-02-09T15:05:48.484Z,90.10
2019-02-09T15:08:16.403Z,90.00
2019-02-09T15:10:44.260Z,89.20
2019-02-09T15:13:13.101Z,87.90
2019-02-09T15:15:48.938Z,86.70
2019-02-09T15:18:16.873Z,86.50
2019-02-09T15:20:46.748Z,85.10
2019-02-09T15:23:14.745Z,84.90
2019-02-09T15:25:42.656Z,84.20
2019-02-09T15:28:12.591Z,82.00
2019-02-09T15:30:40.146Z,81.30
2019-02-09T15:33:08.071Z,78.80
2019-02-09T15:35:36.038Z,77.60
2019-02-09T15:38:04.328Z,77.10
2019-02-09T15:40:32.209Z,75.90
2019-02-09T15:43:00.124Z,75.20
2019-02-09T15:45:28.128Z,74.30
2019-02-09T15:47:56.011Z,74.00
2019-02-09T15:50:23.918Z,74.30
2019-02-09T15:52:52.141Z,73.00
2019-02-09T15:55:20.092Z,72.60
2019-02-09T15:57:48.089Z,71.80
2019-02-09T16:00:25.871Z,70.60
2019-02-09T16:02:54.580Z,70.20
2019-02-09T16:05:22.684Z,70.30
2019-02-09T16:07:50.913Z,69.20
2019-02-09T16:10:19.239Z,70.10
2019-02-09T16:12:47.235Z,69.60
2019-02-09T16:15:16.352Z,69.80
2019-02-09T16:17:44.425Z,69.70
2019-02-09T16:20:13.680Z,70.00
2019-02-09T16:22:41.630Z,69.60
2019-02-09T16:25:09.612Z,70.40
2019-02-09T16:27:37.605Z,70.30
2019-02-09T16:30:06.101Z,71.00
2019-02-09T16:32:34.065Z,72.50
2019-02-09T16:35:01.975Z,74.10
2019-02-09T16:37:29.825Z,76.60
2019-02-09T16:39:57.927Z,79.40
2019-02-09T16:42:25.936Z,78.20
2019-02-09T16:44:54.277Z,78.60
2019-02-09T16:47:22.241Z,78.30
2019-02-09T16:49:50.241Z,78.00
2019-02-09T16:52:18.445Z,77.10
2019-02-09T16:54:46.429Z,78.10
2019-02-09T16:57:14.531Z,76.00
2019-02-09T16:59:42.443Z,75.90
2019-02-09T17:02:10.429Z,75.60
2019-02-09T17:04:38.929Z,75.40
2019-02-09T17:07:07.214Z,75.90
2019-02-09T17:09:35.132Z,76.10
2019-02-09T17:12:03.247Z,76.10
2019-02-09T17:14:31.330Z,77.10
2019-02-09T17:16:59.331Z,77.20
2019-02-09T17:19:27.330Z,77.00
2019-02-09T17:21:55.241Z,76.70
2019-02-09T17:24:23.100Z,76.60
2019-02-09T17:26:51.305Z,75.90
2019-02-09T17:29:19.425Z,74.50
2019-02-09T17:31:47.858Z,74.50
2019-02-09T17:34:15.876Z,73.60
2019-02-09T17:36:43.790Z,72.80
2019-02-09T17:39:11.838Z,72.30
2019-02-09T17:41:39.828Z,72.50
2019-02-09T17:44:08.694Z,72.50
2019-02-09T17:46:36.909Z,73.60
2019-02-09T17:49:04.836Z,72.50
2019-02-09T17:51:33.070Z,73.00
2019-02-09T17:54:01.177Z,73.40
2019-02-09T17:56:29.406Z,74.00
2019-02-09T17:58:57.575Z,75.40
2019-02-09T18:01:25.760Z,76.10
2019-02-09T18:03:53.649Z,75.10
2019-02-09T18:06:21.855Z,75.50
2019-02-09T18:08:49.793Z,75.30
2019-02-09T18:11:17.825Z,75.60
2019-02-09T18:13:45.748Z,75.60
2019-02-09T18:16:13.644Z,75.40
2019-02-09T18:18:41.590Z,75.30
2019-02-09T18:21:09.668Z,75.90
2019-02-09T18:23:37.581Z,76.10
2019-02-09T18:26:05.665Z,76.30
2019-02-09T18:29:00.236Z,76.60
2019-02-09T18:31:28.348Z,77.60
2019-02-09T18:33:56.360Z,77.90
2019-02-09T18:36:25.509Z,78.30
2019-02-09T18:38:53.462Z,78.30
2019-02-09T18:41:21.459Z,79.30
2019-02-09T18:43:49.389Z,79.50
2019-02-09T18:46:17.771Z,81.10
2019-02-09T18:48:45.737Z,81.20
2019-02-09T18:51:13.704Z,82.30
2019-02-09T18:53:41.933Z,82.70
2019-02-09T18:56:09.931Z,82.40
2019-02-09T18:58:37.977Z,82.10
2019-02-09T19:01:05.996Z,82.00
2019-02-09T19:03:33.856Z,81.80
2019-02-09T19:06:01.804Z,81.10
2019-02-09T19:08:29.723Z,80.00
2019-02-09T19:10:57.635Z,80.50
2019-02-09T19:13:25.617Z,79.90
2019-02-09T19:15:53.574Z,79.80
2019-02-09T19:18:21.571Z,80.00
2019-02-09T19:20:51.167Z,79.90
2019-02-09T19:23:19.136Z,80.50
2019-02-09T19:25:47.104Z,80.00
2019-02-09T19:28:14.996Z,79.40
2019-02-09T19:30:42.875Z,80.50
2019-02-09T19:33:10.819Z,81.40
2019-02-09T19:35:38.764Z,82.80
2019-02-09T19:38:06.713Z,83.90
2019-02-09T19:40:34.674Z,84.30
2019-02-09T19:43:02.729Z,84.60
2019-02-09T19:45:31.341Z,85.40
2019-02-09T19:47:59.379Z,86.10
2019-02-09T19:50:27.526Z,86.80
2019-02-09T19:52:55.865Z,87.50
2019-02-09T19:55:24.718Z,88.50
2019-02-09T19:57:52.777Z,88.80
2019-02-09T20:00:21.816Z,89.70
2019-02-09T20:02:49.889Z,90.30
2019-02-09T20:05:19.823Z,90.70
2019-02-09T20:07:47.744Z,90.80
2019-02-09T20:10:18.147Z,90.30
2019-02-09T20:12:46.140Z,90.30
2019-02-09T20:15:14.456Z,90.20
2019-02-09T20:17:43.066Z,90.10
2019-02-09T20:20:11.691Z,90.10
2019-02-09T20:22:39.772Z,89.40
2019-02-09T20:25:09.339Z,88.90
2019-02-09T20:27:37.292Z,88.20
2019-02-09T20:30:07.020Z,87.00
2019-02-09T20:32:34.928Z,87.00
2019-02-09T20:35:03.013Z,86.10
2019-02-09T20:37:31.025Z,85.10
2019-02-09T20:39:58.903Z,84.90
2019-02-09T20:42:28.977Z,85.60
2019-02-09T20:44:56.896Z,86.30
2019-02-09T20:47:24.763Z,85.80
2019-02-09T20:49:52.774Z,86.60
2019-02-09T20:52:20.905Z,87.30
2019-02-09T20:54:48.792Z,86.10
2019-02-09T20:57:17.217Z,86.40
2019-02-09T20:59:45.118Z,86.20
2019-02-09T21:02:16.779Z,87.00
2019-02-09T21:04:44.675Z,86.60
2019-02-09T21:07:14.149Z,87.10
2019-02-09T21:09:42.049Z,88.30
2019-02-09T21:12:10.054Z,88.30
2019-02-09T21:14:38.072Z,87.60
2019-02-09T21:17:05.943Z,87.30
2019-02-09T21:19:36.403Z,85.90
2019-02-09T21:22:04.429Z,85.40
2019-02-09T21:24:32.378Z,86.00
2019-02-09T21:27:00.566Z,86.50
2019-02-09T21:29:29.633Z,87.40
2019-02-09T21:31:57.537Z,87.60
2019-02-09T21:34:25.457Z,88.60
2019-02-09T21:36:53.328Z,89.70
2019-02-09T21:39:21.681Z,90.00
2019-02-09T21:41:49.894Z,90.20
2019-02-09T21:44:17.860Z,90.50
2019-02-09T21:46:45.987Z,90.50
2019-02-09T21:49:13.865Z,90.60
2019-02-09T21:51:41.937Z,90.80
2019-02-09T21:54:10.089Z,90.80
2019-02-09T21:56:38.290Z,91.10
2019-02-09T21:59:06.446Z,91.00
2019-02-09T22:01:34.595Z,91.40
2019-02-09T22:04:02.497Z,91.50
2019-02-09T22:06:30.516Z,91.90
2019-02-09T22:08:58.741Z,92.10
2019-02-09T22:11:26.916Z,92.30
2019-02-09T22:13:54.940Z,92.60
2019-02-09T22:16:22.793Z,92.60
2019-02-09T22:18:50.819Z,92.80
2019-02-09T22:21:19.047Z,93.30
2019-02-09T22:23:47.102Z,93.60
2019-02-09T22:26:15.117Z,93.50
2019-02-09T22:28:43.113Z,93.80
2019-02-09T22:31:11.051Z,94.20
2019-02-09T22:33:38.953Z,94.50
2019-02-09T22:36:06.836Z,94.80
2019-02-09T22:38:34.992Z,95.30
2019-02-09T22:41:02.864Z,95.70
2019-02-09T22:43:31.264Z,96.20
2019-02-09T22:45:59.255Z,96.80
2019-02-09T22:48:27.177Z,96.80
2019-02-09T22:50:55.510Z,97.00
2019-02-09T22:53:23.991Z,96.90
2019-02-09T22:55:51.921Z,96.90
2019-02-09T22:58:19.784Z,97.00
2019-02-09T23:00:57.275Z,97.00
2019-02-09T23:03:27.080Z,97.20
2019-02-09T23:06:12.661Z,97.10
2019-02-09T23:08:40.617Z,97.10
2019-02-09T23:11:08.480Z,97.30
2019-02-09T23:13:36.605Z,97.30
2019-02-09T23:16:04.482Z,97.60
2019-02-09T23:18:32.642Z,97.70
2019-02-09T23:21:00.536Z,97.90
2019-02-09T23:23:28.425Z,97.90
2019-02-09T23:25:56.623Z,97.90
2019-02-09T23:28:24.497Z,98.20
2019-02-09T23:30:52.389Z,98.30
2019-02-09T23:33:20.302Z,98.20
2019-02-09T23:35:48.201Z,98.20
2019-02-09T23:38:16.140Z,98.40
2019-02-09T23:40:44.052Z,98.40
2019-02-09T23:43:12.421Z,98.70
2019-02-09T23:45:40.617Z,98.70
2019-02-09T23:48:08.509Z,98.90
2019-02-09T23:50:36.377Z,98.90
2019-02-09T23:53:04.324Z,99.00
2019-02-09T23:55:33.077Z,99.30
2019-02-09T23:58:01.622Z,99.40
